Time;durP1;ratioP1;P1;durP2;ratioP2;P2;SDS_P1;SDS_P2;PMS_P1;PMS_P2;Temp;Humidity;BMP_temperature;BMP_pressure;BME280_temperature;BME280_humidity;BME280_pressure;Samples;Min_cycle;Max_cycle;Signal;HPM_P1;HPM_P2
2023/08/08 00:02:21;;;;;;;1.80;1.33;;;18.40;64.00;;;;;;6167445;23;20433;-73
2023/08/08 00:04:50;;;;;;;1.33;1.03;;;18.40;63.80;;;;;;6169470;23;20426;-73
2023/08/08 00:07:18;;;;;;;2.00;1.37;;;18.40;63.90;;;;;;6169458;23;20444;-73
2023/08/08 00:09:47;;;;;;;1.57;1.27;;;18.40;63.90;;;;;;6170095;23;20412;-73
2023/08/08 00:12:15;;;;;;;1.30;1.00;;;18.40;63.60;;;;;;6165360;23;20483;-73
2023/08/08 00:14:43;;;;;;;1.80;0.93;;;18.40;63.70;;;;;;6169183;23;20425;-73
2023/08/08 00:17:12;;;;;;;1.97;1.20;;;18.30;63.60;;;;;;6169522;23;20399;-73
2023/08/08 00:19:42;;;;;;;1.50;1.10;;;18.30;63.60;;;;;;6167828;23;20405;-73
2023/08/08 00:22:10;;;;;;;2.70;0.97;;;18.30;63.60;;;;;;6166131;23;20490;-73
2023/08/08 00:24:38;;;;;;;3.57;1.33;;;18.30;63.60;;;;;;6167529;23;20389;-73
2023/08/08 00:27:07;;;;;;;1.27;0.93;;;18.30;63.50;;;;;;6167304;23;20451;-73
2023/08/08 00:29:36;;;;;;;2.60;1.20;;;18.30;63.50;;;;;;6167438;23;20951;-73
2023/08/08 00:32:05;;;;;;;1.20;0.80;;;18.30;63.90;;;;;;6169006;23;20498;-73
2023/08/08 00:34:33;;;;;;;1.97;1.37;;;18.30;64.00;;;;;;6166604;23;20728;-73
2023/08/08 00:37:03;;;;;;;1.60;1.17;;;18.30;63.70;;;;;;6167405;23;20412;-74
2023/08/08 00:39:32;;;;;;;1.90;1.20;;;18.30;63.80;;;;;;6168372;23;20390;-73
2023/08/08 00:42:00;;;;;;;1.80;1.10;;;18.30;63.70;;;;;;6140306;23;20437;-73
2023/08/08 00:44:29;;;;;;;1.70;1.17;;;18.30;63.90;;;;;;6168873;23;20402;-73
2023/08/08 00:46:57;;;;;;;1.63;0.93;;;18.30;63.70;;;;;;6167916;23;20412;-73
2023/08/08 00:49:26;;;;;;;2.23;1.40;;;18.30;63.90;;;;;;6168113;23;20408;-73
2023/08/08 00:51:54;;;;;;;1.60;1.10;;;18.30;63.70;;;;;;6166821;23;20441;-73
2023/08/08 00:54:24;;;;;;;1.67;1.30;;;18.30;63.50;;;;;;6168568;23;20940;-73
2023/08/08 00:56:52;;;;;;;1.70;1.00;;;18.30;63.80;;;;;;6168868;23;20390;-73
2023/08/08 00:59:21;;;;;;;1.20;0.80;;;18.30;63.80;;;;;;6168072;23;20744;-73
2023/08/08 01:01:50;;;;;;;1.37;0.90;;;18.30;63.90;;;;;;6168520;23;20433;-73
2023/08/08 01:04:19;;;;;;;1.23;0.83;;;18.30;63.80;;;;;;6168431;23;20402;-73
2023/08/08 01:06:55;;;;;;;1.80;1.30;;;18.30;63.90;;;;;;6170304;23;20404;-73
2023/08/08 01:09:34;;;;;;;1.50;1.17;;;18.30;63.80;;;;;;6170342;23;20710;-73
2023/08/08 01:12:03;;;;;;;1.90;1.47;;;18.30;63.90;;;;;;6166476;23;20769;-73
2023/08/08 01:14:35;;;;;;;1.70;1.03;;;18.30;64.00;;;;;;6166919;23;20411;-73
2023/08/08 01:17:05;;;;;;;1.73;1.10;;;18.30;63.90;;;;;;6169260;23;20391;-73
2023/08/08 01:19:34;;;;;;;1.30;1.00;;;18.30;64.10;;;;;;6167758;23;20400;-73
2023/08/08 01:22:06;;;;;;;1.40;1.13;;;18.30;64.10;;;;;;6167349;23;20835;-73
2023/08/08 01:24:37;;;;;;;1.80;0.90;;;18.30;64.00;;;;;;6170301;23;20472;-73
2023/08/08 01:27:06;;;;;;;2.10;1.23;;;18.30;64.10;;;;;;6168287;23;20739;-73
2023/08/08 01:29:35;;;;;;;1.73;1.40;;;18.30;64.20;;;;;;6168064;23;20508;-73
2023/08/08 01:32:04;;;;;;;2.13;1.57;;;18.30;64.20;;;;;;6166885;23;20448;-73
2023/08/08 01:34:33;;;;;;;1.60;0.97;;;18.30;64.10;;;;;;6167271;23;20489;-73
2023/08/08 01:37:07;;;;;;;2.37;1.47;;;18.20;64.10;;;;;;6168145;23;20480;-73
2023/08/08 01:39:39;;;;;;;1.23;0.97;;;18.20;64.20;;;;;;6168387;23;20373;-73
2023/08/08 01:42:09;;;;;;;3.20;1.30;;;18.20;64.20;;;;;;6169291;23;20490;-73
2023/08/08 01:44:42;;;;;;;5.10;1.30;;;18.20;64.30;;;;;;6170393;23;20471;-73
2023/08/08 01:47:11;;;;;;;1.70;1.27;;;18.20;64.20;;;;;;6171236;23;20492;-73
2023/08/08 01:49:39;;;;;;;2.17;1.47;;;18.30;64.20;;;;;;6170838;23;20777;-73
2023/08/08 01:52:08;;;;;;;2.73;1.00;;;18.20;63.80;;;;;;6170480;23;20774;-73
2023/08/08 01:54:38;;;;;;;1.70;1.10;;;18.20;64.10;;;;;;6171686;23;20914;-73
2023/08/08 01:57:06;;;;;;;1.60;1.10;;;18.20;64.10;;;;;;6168483;23;20448;-73
2023/08/08 01:59:35;;;;;;;1.40;1.10;;;18.20;64.00;;;;;;6170962;23;20480;-73
2023/08/08 02:02:04;;;;;;;1.77;1.00;;;18.20;64.00;;;;;;6173373;23;20414;-73
2023/08/08 02:04:32;;;;;;;2.60;0.90;;;18.20;64.00;;;;;;6174710;23;20724;-73
2023/08/08 02:07:01;;;;;;;3.33;1.47;;;18.20;63.90;;;;;;6175526;23;20764;-73
2023/08/08 02:09:29;;;;;;;2.03;1.23;;;18.20;63.80;;;;;;6175038;23;20907;-73
2023/08/08 02:11:59;;;;;;;1.53;1.13;;;18.20;63.90;;;;;;6173445;23;20500;-73
2023/08/08 02:14:28;;;;;;;1.93;1.30;;;18.20;63.80;;;;;;6175523;23;20386;-73
2023/08/08 02:16:56;;;;;;;1.30;1.00;;;18.20;64.00;;;;;;6175685;23;20398;-73
2023/08/08 02:19:24;;;;;;;2.80;0.87;;;18.20;63.90;;;;;;6174613;23;20401;-73
2023/08/08 02:21:54;;;;;;;1.50;1.20;;;18.20;63.70;;;;;;6173834;23;20506;-73
2023/08/08 02:24:23;;;;;;;2.03;1.13;;;18.20;64.00;;;;;;6173608;23;20389;-73
2023/08/08 02:26:51;;;;;;;1.77;1.10;;;18.20;63.90;;;;;;6174828;23;20385;-73
2023/08/08 02:29:21;;;;;;;2.23;1.40;;;18.20;63.70;;;;;;6175025;23;20409;-73
2023/08/08 02:31:49;;;;;;;1.77;1.20;;;18.20;64.00;;;;;;6174551;23;20851;-73
2023/08/08 02:34:18;;;;;;;2.63;1.00;;;18.10;63.80;;;;;;6175576;23;20383;-73
2023/08/08 02:36:47;;;;;;;1.40;0.93;;;18.20;63.80;;;;;;6174634;23;20408;-73
2023/08/08 02:39:15;;;;;;;2.00;0.90;;;18.20;63.90;;;;;;6175420;23;20405;-73
2023/08/08 02:41:43;;;;;;;1.83;1.00;;;18.20;63.70;;;;;;6172798;23;20907;-73
2023/08/08 02:44:12;;;;;;;2.17;1.20;;;18.10;63.70;;;;;;6175127;23;20775;-73
2023/08/08 02:46:42;;;;;;;1.73;0.90;;;18.20;63.80;;;;;;6174883;23;20985;-73
2023/08/08 02:49:10;;;;;;;1.67;1.10;;;18.10;63.60;;;;;;6174305;23;20385;-73
2023/08/08 02:51:39;;;;;;;1.97;1.00;;;18.20;63.80;;;;;;6176078;23;20424;-73
2023/08/08 02:54:08;;;;;;;2.10;1.10;;;18.10;63.70;;;;;;6173703;23;20386;-73
2023/08/08 02:56:38;;;;;;;1.80;1.00;;;18.10;63.50;;;;;;6174442;23;20474;-73
2023/08/08 02:59:06;;;;;;;2.80;1.10;;;18.10;63.60;;;;;;6174675;23;20370;-73
2023/08/08 03:01:37;;;;;;;1.83;1.20;;;18.10;63.60;;;;;;6173619;23;20451;-73
2023/08/08 03:04:08;;;;;;;2.73;1.50;;;18.10;63.80;;;;;;6171087;23;20929;-73
2023/08/08 03:06:37;;;;;;;2.90;1.50;;;18.10;63.60;;;;;;6171006;23;20963;-73
2023/08/08 03:09:06;;;;;;;2.43;1.10;;;18.10;63.70;;;;;;6170799;23;20492;-73
2023/08/08 03:11:37;;;;;;;2.50;1.10;;;18.10;63.60;;;;;;6170581;23;20801;-73
2023/08/08 03:14:07;;;;;;;3.20;1.20;;;18.10;63.70;;;;;;6171664;23;20386;-73
2023/08/08 03:16:37;;;;;;;2.30;1.03;;;18.10;63.70;;;;;;6170964;23;20895;-73
2023/08/08 03:19:09;;;;;;;1.50;1.10;;;18.10;63.50;;;;;;6170986;23;20480;-73
2023/08/08 03:21:39;;;;;;;1.60;1.10;;;18.10;63.60;;;;;;6171867;23;20390;-73
2023/08/08 03:24:07;;;;;;;1.90;1.00;;;18.10;63.40;;;;;;6170612;23;20431;-73
2023/08/08 03:26:36;;;;;;;2.33;1.23;;;18.10;63.60;;;;;;6171247;23;20425;-73
2023/08/08 03:29:04;;;;;;;2.03;1.07;;;18.10;63.60;;;;;;6171029;23;20397;-73
2023/08/08 03:31:40;;;;;;;1.87;1.17;;;18.10;63.70;;;;;;6145172;22;20453;-73
2023/08/08 03:34:09;;;;;;;1.40;1.17;;;18.10;63.80;;;;;;6170938;23;20371;-73
2023/08/08 03:36:38;;;;;;;2.00;1.10;;;18.10;63.90;;;;;;6171191;23;20414;-73
2023/08/08 03:39:09;;;;;;;2.13;1.10;;;18.10;63.80;;;;;;6170476;23;20879;-73
2023/08/08 03:41:37;;;;;;;2.60;1.10;;;18.10;63.80;;;;;;6170270;23;20448;-73
2023/08/08 03:44:06;;;;;;;2.77;1.13;;;18.00;63.90;;;;;;6170642;23;21042;-73
2023/08/08 03:46:35;;;;;;;2.30;1.13;;;18.00;64.00;;;;;;6170758;23;20466;-73
2023/08/08 03:49:04;;;;;;;2.00;1.40;;;18.00;64.00;;;;;;6170384;23;21248;-73
2023/08/08 03:51:33;;;;;;;2.00;1.20;;;18.00;63.90;;;;;;6169535;23;20757;-73
2023/08/08 03:54:02;;;;;;;2.00;1.33;;;18.00;64.00;;;;;;6170548;23;20866;-73
2023/08/08 03:56:31;;;;;;;2.23;1.23;;;18.00;64.00;;;;;;6170738;23;20500;-73
2023/08/08 03:58:59;;;;;;;3.40;1.37;;;18.00;64.20;;;;;;6171119;23;20468;-73
2023/08/08 04:01:28;;;;;;;1.40;1.00;;;18.00;64.10;;;;;;6171875;23;20454;-73
2023/08/08 04:03:56;;;;;;;1.80;0.97;;;18.00;64.20;;;;;;6170548;23;20420;-73
2023/08/08 04:06:24;;;;;;;1.60;1.20;;;18.00;64.20;;;;;;6171963;23;20428;-73
2023/08/08 04:08:54;;;;;;;1.87;1.50;;;18.00;64.20;;;;;;6171663;23;20405;-73
2023/08/08 04:11:23;;;;;;;3.07;1.53;;;18.00;64.20;;;;;;6170491;23;20417;-73
2023/08/08 04:13:51;;;;;;;1.80;1.10;;;18.00;64.30;;;;;;6170180;23;20859;-73
2023/08/08 04:16:20;;;;;;;1.87;1.20;;;18.00;64.50;;;;;;6171835;23;20409;-73
2023/08/08 04:18:48;;;;;;;2.77;1.63;;;18.00;64.60;;;;;;6172484;23;20404;-73
2023/08/08 04:21:17;;;;;;;1.97;1.30;;;18.00;64.50;;;;;;6171538;23;20400;-73
2023/08/08 04:23:45;;;;;;;2.23;1.27;;;18.00;64.60;;;;;;6172265;23;20757;-73
2023/08/08 04:26:15;;;;;;;1.90;1.37;;;18.00;64.70;;;;;;6171557;23;20413;-73
2023/08/08 04:28:43;;;;;;;2.83;1.40;;;18.00;64.70;;;;;;6172496;23;20384;-73
2023/08/08 04:31:12;;;;;;;1.90;1.40;;;18.00;64.70;;;;;;6171736;23;20396;-73
2023/08/08 04:33:40;;;;;;;3.37;1.50;;;18.00;64.70;;;;;;6170764;23;21049;-73
2023/08/08 04:36:08;;;;;;;2.00;1.00;;;18.00;64.80;;;;;;6147243;23;20571;-73
2023/08/08 04:38:37;;;;;;;3.60;1.50;;;18.00;64.70;;;;;;6171528;23;20443;-73
2023/08/08 04:41:05;;;;;;;2.83;1.30;;;18.00;64.70;;;;;;6172423;23;20389;-73
2023/08/08 04:43:35;;;;;;;3.67;1.77;;;18.00;64.80;;;;;;6145365;23;20444;-73
2023/08/08 04:46:03;;;;;;;2.43;1.43;;;18.00;64.90;;;;;;6172470;23;20421;-73
2023/08/08 04:48:32;;;;;;;2.30;1.40;;;18.00;65.00;;;;;;6171030;23;20531;-73
2023/08/08 04:51:00;;;;;;;2.60;1.30;;;18.00;65.00;;;;;;6172207;23;20936;-73
2023/08/08 04:53:29;;;;;;;2.83;1.50;;;17.90;65.00;;;;;;6172451;23;20482;-73
2023/08/08 04:55:57;;;;;;;2.57;1.40;;;17.90;65.00;;;;;;6172353;23;20474;-73
2023/08/08 04:58:25;;;;;;;3.13;1.70;;;17.90;65.10;;;;;;6170704;23;20448;-73
2023/08/08 05:00:55;;;;;;;2.53;1.60;;;17.90;65.10;;;;;;6172205;23;20396;-73
2023/08/08 05:03:24;;;;;;;1.70;1.40;;;17.90;65.10;;;;;;6171223;23;20445;-73
2023/08/08 05:05:52;;;;;;;3.20;1.30;;;17.90;65.10;;;;;;6173489;23;20420;-73
2023/08/08 05:08:21;;;;;;;2.00;1.30;;;17.90;65.00;;;;;;6171706;23;20444;-73
2023/08/08 05:10:49;;;;;;;6.97;1.83;;;18.00;65.10;;;;;;6172703;23;20382;-73
2023/08/08 05:13:18;;;;;;;1.70;1.17;;;18.00;65.00;;;;;;6169435;23;20906;-73
2023/08/08 05:15:46;;;;;;;2.87;1.57;;;17.90;64.90;;;;;;6172331;23;20948;-73
2023/08/08 05:18:16;;;;;;;3.00;1.77;;;18.00;65.10;;;;;;6146233;23;20786;-73
2023/08/08 05:20:44;;;;;;;5.77;1.60;;;18.00;65.20;;;;;;6171084;23;20770;-73
2023/08/08 05:23:13;;;;;;;2.63;1.40;;;18.00;65.10;;;;;;6170596;23;20433;-73
2023/08/08 05:25:41;;;;;;;1.80;1.40;;;18.00;65.00;;;;;;6172320;23;20406;-73
2023/08/08 05:28:09;;;;;;;2.07;1.63;;;18.00;65.10;;;;;;6170587;23;20906;-73
2023/08/08 05:30:38;;;;;;;1.87;1.27;;;17.90;65.00;;;;;;6172167;23;20393;-73
2023/08/08 05:33:06;;;;;;;4.30;1.90;;;17.90;64.90;;;;;;6168832;23;20516;-73
2023/08/08 05:35:36;;;;;;;1.87;1.30;;;18.00;65.00;;;;;;6169224;23;20471;-73
2023/08/08 05:38:05;;;;;;;2.73;1.40;;;17.90;64.90;;;;;;6173502;22;20440;-73
2023/08/08 05:40:35;;;;;;;2.80;1.57;;;17.90;65.00;;;;;;6172652;23;20702;-73
2023/08/08 05:43:04;;;;;;;4.57;2.00;;;17.90;65.10;;;;;;6168573;23;20443;-73
2023/08/08 05:45:33;;;;;;;2.43;1.63;;;17.90;64.90;;;;;;6170871;23;20433;-73
2023/08/08 05:48:01;;;;;;;2.67;1.50;;;17.90;65.00;;;;;;6170249;23;20444;-73
2023/08/08 05:50:30;;;;;;;4.47;1.80;;;17.90;65.10;;;;;;6170544;23;20883;-73
2023/08/08 05:52:59;;;;;;;3.43;1.40;;;17.90;65.00;;;;;;6171878;23;20441;-73
2023/08/08 05:55:28;;;;;;;1.90;1.33;;;17.90;65.00;;;;;;6171354;23;20784;-73
2023/08/08 05:57:56;;;;;;;2.63;1.70;;;17.90;64.90;;;;;;6170228;23;20498;-73
2023/08/08 06:00:25;;;;;;;2.67;1.67;;;17.90;64.80;;;;;;6146039;23;20786;-73
2023/08/08 06:02:53;;;;;;;4.33;1.57;;;17.90;64.90;;;;;;6169014;23;21073;-73
2023/08/08 06:05:23;;;;;;;2.80;1.60;;;17.90;65.00;;;;;;6170599;23;20918;-73
2023/08/08 06:07:51;;;;;;;2.43;1.50;;;17.90;64.90;;;;;;6170642;23;20824;-73
2023/08/08 06:10:21;;;;;;;1.70;1.10;;;17.90;64.80;;;;;;6171718;23;20412;-73
2023/08/08 06:12:50;;;;;;;4.20;1.80;;;17.90;64.90;;;;;;6169456;23;20440;-73
2023/08/08 06:15:18;;;;;;;2.47;1.40;;;17.90;64.80;;;;;;6170096;23;20425;-73
2023/08/08 06:17:47;;;;;;;2.43;1.70;;;17.90;65.10;;;;;;6170147;23;20444;-73
2023/08/08 06:20:15;;;;;;;1.93;1.30;;;17.90;65.00;;;;;;6169699;23;20420;-73
2023/08/08 06:22:44;;;;;;;2.03;1.37;;;17.90;65.20;;;;;;6170357;23;20532;-73
2023/08/08 06:25:12;;;;;;;2.00;1.30;;;17.90;65.00;;;;;;6172481;23;20467;-73
2023/08/08 06:27:42;;;;;;;5.33;1.83;;;17.90;65.20;;;;;;6169143;23;20791;-73
2023/08/08 06:30:10;;;;;;;4.17;1.40;;;17.90;65.20;;;;;;6172930;23;20398;-73
2023/08/08 06:32:39;;;;;;;1.50;1.20;;;17.90;65.20;;;;;;6145961;23;20468;-73
2023/08/08 06:35:08;;;;;;;3.60;1.60;;;17.90;65.20;;;;;;6171921;23;20443;-73
2023/08/08 06:37:38;;;;;;;2.07;1.87;;;17.90;65.10;;;;;;6170467;23;20421;-73
2023/08/08 06:40:09;;;;;;;2.23;1.63;;;17.90;65.10;;;;;;6170730;23;20459;-73
2023/08/08 06:42:38;;;;;;;2.03;1.63;;;17.90;65.10;;;;;;6168691;23;20433;-73
2023/08/08 06:45:10;;;;;;;2.43;1.50;;;17.90;65.10;;;;;;6170074;23;20533;-73
2023/08/08 06:47:38;;;;;;;2.57;1.70;;;17.90;65.30;;;;;;6171477;22;20433;-73
2023/08/08 06:50:08;;;;;;;2.57;1.70;;;17.90;65.20;;;;;;6170119;23;20389;-73
2023/08/08 06:52:36;;;;;;;3.20;1.90;;;17.90;65.20;;;;;;6170240;23;20436;-73
2023/08/08 06:55:05;;;;;;;5.97;2.70;;;17.90;65.20;;;;;;6170554;23;20439;-73
2023/08/08 06:57:34;;;;;;;2.63;1.83;;;17.90;65.00;;;;;;6170378;22;20437;-73
2023/08/08 07:00:05;;;;;;;2.80;1.60;;;17.90;65.00;;;;;;6171577;23;20471;-73
2023/08/08 07:02:35;;;;;;;3.57;1.43;;;17.90;65.00;;;;;;6170969;22;20437;-73
2023/08/08 07:05:04;;;;;;;2.87;1.20;;;17.90;65.00;;;;;;6169912;23;20488;-73
2023/08/08 07:07:33;;;;;;;1.73;1.10;;;17.90;64.80;;;;;;6171235;22;20451;-73
2023/08/08 07:10:01;;;;;;;3.40;1.87;;;17.90;64.70;;;;;;6169354;23;20432;-73
2023/08/08 07:12:30;;;;;;;1.87;1.30;;;18.00;64.70;;;;;;6169790;23;20753;-73
2023/08/08 07:14:58;;;;;;;1.80;1.50;;;18.00;64.60;;;;;;6169827;23;20477;-73
2023/08/08 07:17:27;;;;;;;1.90;1.27;;;18.00;64.60;;;;;;6170346;23;20433;-73
2023/08/08 07:19:57;;;;;;;1.90;1.27;;;18.00;64.50;;;;;;6169725;23;20902;-73
2023/08/08 07:22:25;;;;;;;4.90;1.43;;;18.00;64.60;;;;;;6169906;23;20436;-73
2023/08/08 07:24:54;;;;;;;3.43;1.80;;;18.00;64.50;;;;;;6169343;23;20779;-73
2023/08/08 07:27:22;;;;;;;2.73;1.40;;;18.00;64.60;;;;;;6170272;23;20403;-73
2023/08/08 07:29:51;;;;;;;2.00;1.60;;;18.00;64.40;;;;;;6170093;23;20452;-73
2023/08/08 07:32:19;;;;;;;2.37;1.70;;;18.00;64.40;;;;;;6169071;23;20437;-73
2023/08/08 07:34:47;;;;;;;2.60;1.77;;;18.00;64.20;;;;;;6169649;23;20414;-73
2023/08/08 07:37:18;;;;;;;2.47;1.60;;;18.10;64.40;;;;;;6170227;23;20957;-73
2023/08/08 07:39:46;;;;;;;1.90;1.40;;;18.00;64.30;;;;;;6172726;23;20385;-73
2023/08/08 07:42:14;;;;;;;2.43;1.87;;;18.00;64.20;;;;;;6169599;23;20979;-73
2023/08/08 07:44:43;;;;;;;2.67;1.97;;;18.00;64.30;;;;;;6170779;23;20897;-73
2023/08/08 07:47:11;;;;;;;2.53;1.60;;;18.00;64.30;;;;;;6171201;23;20422;-73
2023/08/08 07:49:40;;;;;;;2.53;1.73;;;18.00;64.30;;;;;;6169714;23;20393;-73
2023/08/08 07:52:09;;;;;;;3.77;1.97;;;18.00;64.30;;;;;;6170851;23;20444;-73
2023/08/08 07:54:39;;;;;;;3.10;1.90;;;18.00;64.30;;;;;;6170856;23;20405;-73
2023/08/08 07:57:07;;;;;;;1.93;1.73;;;18.00;64.30;;;;;;6169892;23;20735;-72
2023/08/08 07:59:35;;;;;;;2.30;2.07;;;18.00;64.20;;;;;;6173427;23;20867;-73
2023/08/08 08:02:04;;;;;;;2.43;2.10;;;18.00;64.30;;;;;;6167856;23;20429;-73
2023/08/08 08:04:34;;;;;;;2.90;1.60;;;18.00;64.30;;;;;;6171052;23;20870;-73
2023/08/08 08:07:03;;;;;;;2.90;1.47;;;18.00;64.30;;;;;;6172511;23;20392;-73
2023/08/08 08:09:31;;;;;;;2.63;1.50;;;18.00;64.20;;;;;;6172052;23;20382;-73
2023/08/08 08:12:05;;;;;;;1.93;1.80;;;18.00;64.30;;;;;;6171832;23;20749;-73
2023/08/08 08:14:33;;;;;;;1.93;1.60;;;18.00;64.40;;;;;;6171802;23;20396;-73
2023/08/08 08:17:01;;;;;;;2.57;1.83;;;18.00;64.30;;;;;;6170297;23;20767;-73
2023/08/08 08:19:30;;;;;;;2.60;1.93;;;18.00;64.30;;;;;;6171646;23;20463;-73
2023/08/08 08:21:58;;;;;;;5.10;2.20;;;18.00;64.40;;;;;;6171639;23;20385;-74
2023/08/08 08:24:27;;;;;;;1.77;1.60;;;18.00;64.30;;;;;;6171609;23;20401;-74
2023/08/08 08:26:56;;;;;;;4.40;2.40;;;18.00;64.30;;;;;;6172504;23;20437;-74
2023/08/08 08:29:25;;;;;;;2.97;1.80;;;18.00;64.40;;;;;;6172685;23;20396;-74
2023/08/08 08:31:53;;;;;;;3.33;1.63;;;18.00;64.30;;;;;;6170708;23;20458;-74
2023/08/08 08:34:22;;;;;;;4.03;2.23;;;18.00;64.30;;;;;;6170357;23;20393;-72
2023/08/08 08:36:50;;;;;;;2.70;1.97;;;18.00;64.30;;;;;;6146487;23;20444;-73
2023/08/08 08:39:19;;;;;;;2.70;1.90;;;18.00;64.30;;;;;;6171329;23;20405;-73
2023/08/08 08:41:50;;;;;;;2.63;1.90;;;18.00;64.20;;;;;;6171057;23;20413;-73
2023/08/08 08:44:19;;;;;;;2.90;1.90;;;18.00;64.30;;;;;;6173588;23;20908;-72
2023/08/08 08:46:52;;;;;;;6.63;3.50;;;18.10;64.40;;;;;;6166600;23;20440;-71
2023/08/08 08:49:22;;;;;;;4.90;2.93;;;18.30;64.40;;;;;;6172743;23;20383;-71
2023/08/08 08:51:51;;;;;;;7.47;3.60;;;18.50;63.80;;;;;;6170159;23;20879;-73
2023/08/08 08:54:21;;;;;;;3.13;2.83;;;18.50;63.20;;;;;;6170496;23;20389;-73
2023/08/08 08:56:50;;;;;;;8.10;3.53;;;18.50;63.20;;;;;;6171588;23;20385;-73
2023/08/08 08:59:18;;;;;;;6.90;3.50;;;18.50;63.30;;;;;;6166733;23;20377;-73
2023/08/08 09:01:48;;;;;;;9.20;3.30;;;18.40;63.70;;;;;;6171559;23;20403;-73
2023/08/08 09:04:19;;;;;;;4.83;3.53;;;18.40;64.10;;;;;;6167863;23;20223;-73
2023/08/08 09:06:48;;;;;;;7.70;2.93;;;18.40;64.00;;;;;;6168973;23;20444;-73
2023/08/08 09:09:17;;;;;;;12.20;3.40;;;18.40;64.10;;;;;;6168340;23;20431;-73
2023/08/08 09:11:46;;;;;;;7.23;3.50;;;18.40;64.10;;;;;;6171780;23;20655;-72
2023/08/08 09:14:19;;;;;;;7.27;3.93;;;18.40;64.00;;;;;;6170267;23;20408;-72
2023/08/08 09:16:50;;;;;;;6.53;3.20;;;18.60;64.10;;;;;;6169830;23;20437;-73
2023/08/08 09:19:18;;;;;;;5.10;2.90;;;18.80;64.10;;;;;;6168346;23;20370;-72
2023/08/08 09:21:47;;;;;;;18.20;4.47;;;18.80;64.00;;;;;;6170018;23;20411;-73
2023/08/08 09:24:16;;;;;;;15.70;4.57;;;18.70;63.90;;;;;;6173489;23;20170;-74
2023/08/08 09:26:45;;;;;;;10.80;4.30;;;18.60;64.10;;;;;;6169181;23;20436;-73
2023/08/08 09:29:15;;;;;;;17.20;3.93;;;18.50;64.30;;;;;;6173122;23;20369;-74
2023/08/08 09:31:43;;;;;;;14.70;3.77;;;18.50;64.40;;;;;;6172371;23;20480;-74
2023/08/08 09:34:13;;;;;;;9.80;3.80;;;18.40;64.30;;;;;;6169490;23;21049;-73
2023/08/08 09:36:42;;;;;;;13.63;3.23;;;18.40;64.40;;;;;;6169512;23;20433;-73
2023/08/08 09:39:10;;;;;;;8.77;3.87;;;18.30;64.50;;;;;;6170528;23;20388;-73
2023/08/08 09:41:40;;;;;;;11.60;4.80;;;18.30;64.60;;;;;;6170471;23;20400;-74
2023/08/08 09:44:09;;;;;;;8.70;3.67;;;18.30;64.60;;;;;;6170950;23;20405;-74
2023/08/08 09:46:38;;;;;;;6.50;3.40;;;18.30;64.60;;;;;;6169788;23;20436;-72
2023/08/08 09:49:07;;;;;;;7.13;3.13;;;18.30;64.70;;;;;;6169350;23;20393;-72
2023/08/08 09:51:37;;;;;;;8.27;3.20;;;18.30;64.70;;;;;;6170280;23;20394;-72
2023/08/08 09:54:06;;;;;;;6.10;2.50;;;18.30;64.60;;;;;;6168139;23;20760;-72
2023/08/08 09:56:35;;;;;;;10.80;2.93;;;18.30;64.60;;;;;;6170704;23;20387;-73
2023/08/08 09:59:04;;;;;;;8.00;2.90;;;18.30;64.70;;;;;;6170653;23;20382;-73
2023/08/08 10:01:33;;;;;;;4.07;2.90;;;18.30;64.70;;;;;;6168086;23;20393;-74
2023/08/08 10:04:04;;;;;;;4.83;2.27;;;18.20;64.50;;;;;;6168302;23;20507;-72
2023/08/08 10:06:32;;;;;;;6.33;2.90;;;18.20;64.50;;;;;;6168905;23;20437;-73
2023/08/08 10:09:03;;;;;;;9.37;2.80;;;18.20;64.50;;;;;;6170759;23;20405;-72
2023/08/08 10:11:33;;;;;;;4.53;2.70;;;18.20;64.50;;;;;;6170145;23;20383;-74
2023/08/08 10:14:03;;;;;;;4.80;3.10;;;18.20;64.50;;;;;;6171263;23;20401;-74
2023/08/08 10:16:34;;;;;;;5.63;2.70;;;18.20;64.30;;;;;;6169332;23;20445;-73
2023/08/08 10:19:05;;;;;;;4.17;2.20;;;18.20;64.30;;;;;;6170328;23;20397;-73
2023/08/08 10:21:35;;;;;;;3.70;2.10;;;18.30;64.40;;;;;;6170615;23;20948;-72
2023/08/08 10:24:07;;;;;;;5.20;2.80;;;18.30;64.30;;;;;;6170896;23;20389;-72
2023/08/08 10:26:51;;;;;;;3.43;2.37;;;18.20;64.30;;;;;;6169369;23;20483;-73
2023/08/08 10:29:21;;;;;;;3.27;1.90;;;18.20;64.30;;;;;;6169967;23;20381;-74
2023/08/08 10:31:53;;;;;;;2.90;2.23;;;18.20;64.30;;;;;;6172848;23;20412;-73
2023/08/08 10:34:22;;;;;;;4.13;2.53;;;18.30;65.60;;;;;;6172675;23;20447;-73
2023/08/08 10:36:52;;;;;;;6.13;2.70;;;18.30;64.30;;;;;;6172072;23;20433;-73
2023/08/08 10:39:22;;;;;;;4.07;2.17;;;18.30;64.20;;;;;;6170990;23;20449;-73
2023/08/08 10:41:51;;;;;;;3.40;2.07;;;18.30;64.20;;;;;;6172013;23;20382;-73
2023/08/08 10:44:24;;;;;;;4.20;2.17;;;18.30;64.20;;;;;;6171298;23;20416;-73
2023/08/08 10:46:54;;;;;;;3.20;2.30;;;18.30;63.90;;;;;;6171411;23;20431;-73
2023/08/08 10:49:25;;;;;;;4.30;2.40;;;18.30;63.90;;;;;;6169856;23;20917;-73
2023/08/08 10:51:53;;;;;;;19.97;4.60;;;18.30;63.60;;;;;;6170158;23;20924;-74
2023/08/08 10:54:28;;;;;;;3.43;1.93;;;18.30;63.50;;;;;;6171551;23;20400;-73
2023/08/08 10:56:58;;;;;;;5.30;2.40;;;18.30;62.50;;;;;;6170556;23;20456;-73
2023/08/08 10:59:29;;;;;;;8.40;3.17;;;18.30;62.80;;;;;;6171203;23;20397;-73
2023/08/08 11:02:00;;;;;;;4.77;2.80;;;18.30;63.10;;;;;;6170778;23;20390;-73
2023/08/08 11:04:30;;;;;;;3.77;2.37;;;18.30;63.20;;;;;;6170196;23;20474;-73
2023/08/08 11:06:58;;;;;;;2.23;1.67;;;18.30;63.30;;;;;;6173188;23;20505;-73
2023/08/08 11:09:28;;;;;;;4.07;2.07;;;18.30;63.30;;;;;;6170558;23;20390;-73
2023/08/08 11:11:57;;;;;;;3.80;2.00;;;18.30;63.40;;;;;;6170477;23;20411;-73
2023/08/08 11:14:26;;;;;;;3.23;2.40;;;18.20;63.30;;;;;;6170504;23;20399;-73
2023/08/08 11:16:55;;;;;;;5.50;2.27;;;18.30;63.60;;;;;;6170064;23;20441;-73
2023/08/08 11:19:24;;;;;;;3.87;2.30;;;18.30;63.40;;;;;;6171241;23;20788;-73
2023/08/08 11:21:53;;;;;;;3.90;2.17;;;18.30;63.50;;;;;;6171125;23;20401;-73
2023/08/08 11:24:21;;;;;;;4.93;2.50;;;18.30;63.60;;;;;;6146071;23;20385;-73
2023/08/08 11:26:52;;;;;;;4.60;2.43;;;18.30;63.40;;;;;;6170791;23;20483;-73
2023/08/08 11:29:20;;;;;;;5.17;2.40;;;18.20;63.50;;;;;;6170688;23;20411;-73
2023/08/08 11:31:49;;;;;;;3.80;2.00;;;18.20;63.50;;;;;;6169462;23;20393;-73
2023/08/08 11:34:18;;;;;;;3.20;2.10;;;18.20;63.60;;;;;;6170193;23;20405;-73
2023/08/08 11:36:48;;;;;;;3.27;1.90;;;18.20;63.70;;;;;;6170148;23;20771;-73
2023/08/08 11:39:17;;;;;;;4.43;1.70;;;18.20;63.80;;;;;;6172009;23;20381;-75
2023/08/08 11:41:46;;;;;;;5.83;2.70;;;18.20;63.70;;;;;;6172228;23;20398;-73
2023/08/08 11:44:16;;;;;;;5.80;3.10;;;18.60;60.70;;;;;;6169157;23;20899;-71
2023/08/08 11:46:46;;;;;;;3.67;2.90;;;18.70;61.80;;;;;;6169911;23;20906;-75
2023/08/08 11:49:16;;;;;;;3.50;2.20;;;18.90;61.70;;;;;;6171662;23;20389;-72
2023/08/08 11:51:45;;;;;;;4.87;2.20;;;18.90;60.70;;;;;;6173098;23;20389;-73
2023/08/08 11:54:15;;;;;;;5.20;2.40;;;18.90;60.50;;;;;;6166519;23;20391;-72
2023/08/08 11:56:44;;;;;;;3.00;1.60;;;18.80;61.30;;;;;;6169426;23;20573;-72
2023/08/08 11:59:13;;;;;;;5.80;2.30;;;18.60;61.90;;;;;;6170968;23;20396;-72
2023/08/08 12:01:44;;;;;;;5.03;2.30;;;18.60;62.50;;;;;;6170593;23;20383;-72
2023/08/08 12:04:13;;;;;;;3.60;2.03;;;18.50;62.40;;;;;;6170801;23;20390;-72
2023/08/08 12:06:42;;;;;;;3.87;2.30;;;18.40;62.30;;;;;;6170516;23;20965;-71
2023/08/08 12:09:13;;;;;;;6.80;2.53;;;18.40;62.30;;;;;;6170979;23;21047;-72
2023/08/08 12:11:44;;;;;;;5.63;2.77;;;18.40;62.30;;;;;;6169961;23;20400;-72
2023/08/08 12:14:13;;;;;;;3.63;1.60;;;18.40;62.30;;;;;;6170863;23;20851;-72
2023/08/08 12:16:44;;;;;;;4.10;2.37;;;18.30;62.20;;;;;;6169790;23;20441;-72
2023/08/08 12:19:17;;;;;;;4.00;2.00;;;18.30;62.50;;;;;;6171673;23;20463;-71
2023/08/08 12:21:48;;;;;;;3.53;1.70;;;18.30;62.60;;;;;;6170210;23;20711;-72
2023/08/08 12:24:16;;;;;;;2.40;1.53;;;18.30;62.70;;;;;;6172685;23;20389;-72
2023/08/08 12:26:45;;;;;;;4.27;1.60;;;18.30;62.80;;;;;;6169769;23;20432;-72
2023/08/08 12:29:13;;;;;;;4.40;2.00;;;18.30;62.90;;;;;;6170240;23;20919;-71
2023/08/08 12:31:43;;;;;;;3.30;2.10;;;18.30;63.00;;;;;;6169413;23;20436;-72
2023/08/08 12:34:12;;;;;;;3.43;2.30;;;18.30;63.00;;;;;;6170969;23;20386;-71
2023/08/08 12:36:40;;;;;;;2.87;2.00;;;18.30;62.90;;;;;;6171277;23;20437;-72
2023/08/08 12:39:10;;;;;;;2.53;1.83;;;18.30;63.10;;;;;;6170333;23;20485;-72
2023/08/08 12:41:40;;;;;;;3.13;1.83;;;18.30;62.90;;;;;;6169692;23;20381;-72
2023/08/08 12:44:08;;;;;;;3.43;2.17;;;18.30;63.00;;;;;;6172330;23;20378;-72
2023/08/08 12:46:37;;;;;;;3.73;2.00;;;18.30;63.10;;;;;;6171961;23;20402;-72
2023/08/08 12:49:07;;;;;;;4.60;1.90;;;18.20;62.90;;;;;;6171407;23;20754;-72
2023/08/08 12:51:35;;;;;;;3.73;1.40;;;18.30;63.10;;;;;;6171227;23;20389;-71
2023/08/08 12:54:04;;;;;;;3.60;1.90;;;18.30;63.10;;;;;;6171058;23;20389;-72
2023/08/08 12:56:32;;;;;;;3.37;1.60;;;18.30;63.10;;;;;;6172066;23;20424;-72